sensor_id;sensor_type;location;lat;lon;timestamp;temperature;humidity
22069;DHT22;13887;57.196;-2.100;2023-02-28T00:00:39;6.21;82.08
22069;DHT22;13887;57.196;-2.100;2023-02-28T00:03:06;6.24;82.14
22069;DHT22;13887;57.196;-2.100;2023-02-28T00:05:34;6.25;81.97
22069;DHT22;13887;57.196;-2.100;2023-02-28T00:08:01;6.24;81.98
22069;DHT22;13887;57.196;-2.100;2023-02-28T00:10:30;6.24;82.01
22069;DHT22;13887;57.196;-2.100;2023-02-28T00:13:03;6.25;81.89
22069;DHT22;13887;57.196;-2.100;2023-02-28T00:15:32;6.26;81.95
22069;DHT22;13887;57.196;-2.100;2023-02-28T00:17:59;6.25;81.88
22069;DHT22;13887;57.196;-2.100;2023-02-28T00:20:26;6.26;82.02
22069;DHT22;13887;57.196;-2.100;2023-02-28T00:22:54;6.25;82.07
22069;DHT22;13887;57.196;-2.100;2023-02-28T00:25:23;6.25;82.20
22069;DHT22;13887;57.196;-2.100;2023-02-28T00:27:52;6.25;82.36
22069;DHT22;13887;57.196;-2.100;2023-02-28T00:30:21;6.24;82.65
22069;DHT22;13887;57.196;-2.100;2023-02-28T00:32:49;6.24;82.58
22069;DHT22;13887;57.196;-2.100;2023-02-28T00:35:16;6.24;82.63
22069;DHT22;13887;57.196;-2.100;2023-02-28T00:37:44;6.24;82.91
22069;DHT22;13887;57.196;-2.100;2023-02-28T00:40:11;6.20;82.94
22069;DHT22;13887;57.196;-2.100;2023-02-28T00:42:39;6.21;83.22
22069;DHT22;13887;57.196;-2.100;2023-02-28T00:45:07;6.22;83.42
22069;DHT22;13887;57.196;-2.100;2023-02-28T00:47:37;6.22;83.61
22069;DHT22;13887;57.196;-2.100;2023-02-28T00:50:05;6.22;83.77
22069;DHT22;13887;57.196;-2.100;2023-02-28T00:52:35;6.19;83.87
22069;DHT22;13887;57.196;-2.100;2023-02-28T00:55:03;6.16;84.10
22069;DHT22;13887;57.196;-2.100;2023-02-28T00:57:30;6.19;84.16
22069;DHT22;13887;57.196;-2.100;2023-02-28T00:59:57;6.16;84.29
22069;DHT22;13887;57.196;-2.100;2023-02-28T01:02:24;6.17;84.29
22069;DHT22;13887;57.196;-2.100;2023-02-28T01:04:52;6.19;84.19
22069;DHT22;13887;57.196;-2.100;2023-02-28T01:07:19;6.16;84.68
22069;DHT22;13887;57.196;-2.100;2023-02-28T01:09:46;6.17;84.65
22069;DHT22;13887;57.196;-2.100;2023-02-28T01:12:13;6.16;84.68
22069;DHT22;13887;57.196;-2.100;2023-02-28T01:14:40;6.20;84.19
22069;DHT22;13887;57.196;-2.100;2023-02-28T01:17:07;6.20;84.28
22069;DHT22;13887;57.196;-2.100;2023-02-28T01:19:34;6.21;84.14
22069;DHT22;13887;57.196;-2.100;2023-02-28T01:22:03;6.20;84.28
22069;DHT22;13887;57.196;-2.100;2023-02-28T01:24:30;6.24;84.03
22069;DHT22;13887;57.196;-2.100;2023-02-28T01:27:00;6.22;84.03
22069;DHT22;13887;57.196;-2.100;2023-02-28T01:29:27;6.24;84.12
22069;DHT22;13887;57.196;-2.100;2023-02-28T01:31:54;6.22;84.09
22069;DHT22;13887;57.196;-2.100;2023-02-28T01:34:20;6.21;84.04
22069;DHT22;13887;57.196;-2.100;2023-02-28T01:36:48;6.17;84.35
22069;DHT22;13887;57.196;-2.100;2023-02-28T01:39:14;6.17;84.45
22069;DHT22;13887;57.196;-2.100;2023-02-28T01:41:41;6.17;84.45
22069;DHT22;13887;57.196;-2.100;2023-02-28T01:47:15;6.15;84.39
22069;DHT22;13887;57.196;-2.100;2023-02-28T01:49:42;6.22;84.21
22069;DHT22;13887;57.196;-2.100;2023-02-28T01:52:10;6.17;84.30
22069;DHT22;13887;57.196;-2.100;2023-02-28T01:54:49;6.19;84.26
22069;DHT22;13887;57.196;-2.100;2023-02-28T01:57:22;6.19;84.23
22069;DHT22;13887;57.196;-2.100;2023-02-28T02:00:03;6.17;84.26
22069;DHT22;13887;57.196;-2.100;2023-02-28T02:02:38;6.21;84.35
22069;DHT22;13887;57.196;-2.100;2023-02-28T02:05:19;6.20;84.32
22069;DHT22;13887;57.196;-2.100;2023-02-28T02:07:50;6.17;84.30
22069;DHT22;13887;57.196;-2.100;2023-02-28T02:10:19;6.10;84.84
22069;DHT22;13887;57.196;-2.100;2023-02-28T02:18:32;6.16;84.24
22069;DHT22;13887;57.196;-2.100;2023-02-28T02:37:47;6.13;84.66
22069;DHT22;13887;57.196;-2.100;2023-02-28T02:40:25;6.09;84.77
22069;DHT22;13887;57.196;-2.100;2023-02-28T02:43:08;6.09;84.72
22069;DHT22;13887;57.196;-2.100;2023-02-28T02:45:46;6.13;84.58
22069;DHT22;13887;57.196;-2.100;2023-02-28T02:48:17;6.16;84.33
22069;DHT22;13887;57.196;-2.100;2023-02-28T02:50:51;6.17;84.20
22069;DHT22;13887;57.196;-2.100;2023-02-28T02:53:24;6.17;84.11
22069;DHT22;13887;57.196;-2.100;2023-02-28T02:55:54;6.14;84.04
22069;DHT22;13887;57.196;-2.100;2023-02-28T02:58:27;6.17;84.16
22069;DHT22;13887;57.196;-2.100;2023-02-28T03:00:58;6.17;84.08
22069;DHT22;13887;57.196;-2.100;2023-02-28T03:03:28;6.14;84.06
22069;DHT22;13887;57.196;-2.100;2023-02-28T03:05:57;6.14;84.09
22069;DHT22;13887;57.196;-2.100;2023-02-28T03:08:26;6.14;84.13
22069;DHT22;13887;57.196;-2.100;2023-02-28T03:11:00;6.13;84.14
22069;DHT22;13887;57.196;-2.100;2023-02-28T03:18:58;6.13;84.00
22069;DHT22;13887;57.196;-2.100;2023-02-28T03:24:11;6.09;84.27
22069;DHT22;13887;57.196;-2.100;2023-02-28T03:26:42;6.09;84.26
22069;DHT22;13887;57.196;-2.100;2023-02-28T03:29:18;6.09;84.32
22069;DHT22;13887;57.196;-2.100;2023-02-28T03:31:52;6.08;84.13
22069;DHT22;13887;57.196;-2.100;2023-02-28T03:36:51;6.05;84.53
22069;DHT22;13887;57.196;-2.100;2023-02-28T03:39:27;6.05;84.61
22069;DHT22;13887;57.196;-2.100;2023-02-28T03:42:01;6.05;84.55
22069;DHT22;13887;57.196;-2.100;2023-02-28T03:49:49;6.04;84.48
22069;DHT22;13887;57.196;-2.100;2023-02-28T03:52:18;6.05;84.48
22069;DHT22;13887;57.196;-2.100;2023-02-28T03:54:50;6.08;84.23
22069;DHT22;13887;57.196;-2.100;2023-02-28T03:57:40;6.07;84.17
22069;DHT22;13887;57.196;-2.100;2023-02-28T04:00:17;6.08;84.16
22069;DHT22;13887;57.196;-2.100;2023-02-28T04:02:45;6.07;84.13
22069;DHT22;13887;57.196;-2.100;2023-02-28T04:05:12;6.06;84.11
22069;DHT22;13887;57.196;-2.100;2023-02-28T04:07:39;6.06;84.23
22069;DHT22;13887;57.196;-2.100;2023-02-28T04:10:06;6.06;84.29
22069;DHT22;13887;57.196;-2.100;2023-02-28T04:12:33;6.04;84.58
22069;DHT22;13887;57.196;-2.100;2023-02-28T04:15:03;6.04;84.52
22069;DHT22;13887;57.196;-2.100;2023-02-28T04:17:31;6.02;84.54
22069;DHT22;13887;57.196;-2.100;2023-02-28T04:19:57;6.02;84.42
22069;DHT22;13887;57.196;-2.100;2023-02-28T04:22:25;6.05;84.30
22069;DHT22;13887;57.196;-2.100;2023-02-28T04:24:54;6.07;84.25
22069;DHT22;13887;57.196;-2.100;2023-02-28T04:27:21;6.07;84.06
22069;DHT22;13887;57.196;-2.100;2023-02-28T04:29:48;6.09;84.05
22069;DHT22;13887;57.196;-2.100;2023-02-28T04:32:15;6.08;84.00
22069;DHT22;13887;57.196;-2.100;2023-02-28T04:34:43;6.05;84.38
22069;DHT22;13887;57.196;-2.100;2023-02-28T04:37:10;6.01;84.46
22069;DHT22;13887;57.196;-2.100;2023-02-28T04:39:40;6.04;84.29
22069;DHT22;13887;57.196;-2.100;2023-02-28T04:42:08;6.04;84.40
22069;DHT22;13887;57.196;-2.100;2023-02-28T04:44:35;6.02;84.64
22069;DHT22;13887;57.196;-2.100;2023-02-28T04:47:02;5.99;84.84
22069;DHT22;13887;57.196;-2.100;2023-02-28T04:49:29;5.98;84.89
22069;DHT22;13887;57.196;-2.100;2023-02-28T04:51:56;6.00;84.73
22069;DHT22;13887;57.196;-2.100;2023-02-28T04:54:23;5.99;84.87
22069;DHT22;13887;57.196;-2.100;2023-02-28T04:56:50;5.99;85.01
22069;DHT22;13887;57.196;-2.100;2023-02-28T04:59:17;5.93;85.38
22069;DHT22;13887;57.196;-2.100;2023-02-28T05:01:46;5.90;85.84
22069;DHT22;13887;57.196;-2.100;2023-02-28T05:04:14;5.89;85.79
22069;DHT22;13887;57.196;-2.100;2023-02-28T05:06:41;5.91;85.74
22069;DHT22;13887;57.196;-2.100;2023-02-28T05:09:08;5.94;85.54
22069;DHT22;13887;57.196;-2.100;2023-02-28T05:11:39;5.94;85.25
22069;DHT22;13887;57.196;-2.100;2023-02-28T05:14:10;5.97;85.38
22069;DHT22;13887;57.196;-2.100;2023-02-28T05:16:38;5.94;85.36
22069;DHT22;13887;57.196;-2.100;2023-02-28T05:19:05;5.97;85.24
22069;DHT22;13887;57.196;-2.100;2023-02-28T05:21:38;5.98;85.02
22069;DHT22;13887;57.196;-2.100;2023-02-28T05:24:07;5.93;85.25
22069;DHT22;13887;57.196;-2.100;2023-02-28T05:26:37;5.92;85.30
22069;DHT22;13887;57.196;-2.100;2023-02-28T05:29:05;5.96;84.99
22069;DHT22;13887;57.196;-2.100;2023-02-28T05:31:33;5.98;85.01
22069;DHT22;13887;57.196;-2.100;2023-02-28T05:34:00;5.97;84.96
22069;DHT22;13887;57.196;-2.100;2023-02-28T05:36:27;5.98;85.00
22069;DHT22;13887;57.196;-2.100;2023-02-28T05:38:54;5.98;84.95
22069;DHT22;13887;57.196;-2.100;2023-02-28T05:41:21;5.91;85.27
22069;DHT22;13887;57.196;-2.100;2023-02-28T05:43:49;5.92;85.10
22069;DHT22;13887;57.196;-2.100;2023-02-28T05:46:16;5.95;84.90
22069;DHT22;13887;57.196;-2.100;2023-02-28T05:48:46;5.96;84.82
22069;DHT22;13887;57.196;-2.100;2023-02-28T05:51:13;5.95;84.77
22069;DHT22;13887;57.196;-2.100;2023-02-28T05:53:41;5.92;85.02
22069;DHT22;13887;57.196;-2.100;2023-02-28T05:56:08;5.93;84.97
22069;DHT22;13887;57.196;-2.100;2023-02-28T05:58:35;5.93;84.97
22069;DHT22;13887;57.196;-2.100;2023-02-28T06:01:20;5.94;85.03
22069;DHT22;13887;57.196;-2.100;2023-02-28T06:03:48;5.96;84.97
22069;DHT22;13887;57.196;-2.100;2023-02-28T06:06:15;5.86;85.34
22069;DHT22;13887;57.196;-2.100;2023-02-28T06:08:42;5.91;85.27
22069;DHT22;13887;57.196;-2.100;2023-02-28T06:11:11;5.92;85.08
22069;DHT22;13887;57.196;-2.100;2023-02-28T06:13:38;5.90;85.13
22069;DHT22;13887;57.196;-2.100;2023-02-28T06:16:05;5.91;85.00
22069;DHT22;13887;57.196;-2.100;2023-02-28T06:18:32;5.92;84.87
22069;DHT22;13887;57.196;-2.100;2023-02-28T06:20:59;5.92;84.82
22069;DHT22;13887;57.196;-2.100;2023-02-28T06:23:26;5.92;84.81
22069;DHT22;13887;57.196;-2.100;2023-02-28T06:25:54;5.91;84.90
22069;DHT22;13887;57.196;-2.100;2023-02-28T06:28:25;5.90;84.99
22069;DHT22;13887;57.196;-2.100;2023-02-28T06:30:52;5.83;85.32
22069;DHT22;13887;57.196;-2.100;2023-02-28T06:33:19;5.81;85.31
22069;DHT22;13887;57.196;-2.100;2023-02-28T06:35:49;5.82;85.31
22069;DHT22;13887;57.196;-2.100;2023-02-28T06:38:16;5.83;85.17
22069;DHT22;13887;57.196;-2.100;2023-02-28T06:40:44;5.83;85.05
22069;DHT22;13887;57.196;-2.100;2023-02-28T06:43:12;5.81;85.08
22069;DHT22;13887;57.196;-2.100;2023-02-28T06:45:44;5.80;85.07
22069;DHT22;13887;57.196;-2.100;2023-02-28T06:48:11;5.77;85.20
22069;DHT22;13887;57.196;-2.100;2023-02-28T06:50:38;5.78;85.20
22069;DHT22;13887;57.196;-2.100;2023-02-28T06:53:05;5.76;85.44
22069;DHT22;13887;57.196;-2.100;2023-02-28T06:55:32;5.72;85.56
22069;DHT22;13887;57.196;-2.100;2023-02-28T06:57:59;5.72;85.47
22069;DHT22;13887;57.196;-2.100;2023-02-28T07:00:26;5.75;85.36
22069;DHT22;13887;57.196;-2.100;2023-02-28T07:02:53;5.76;85.20
22069;DHT22;13887;57.196;-2.100;2023-02-28T07:05:21;5.75;85.16
22069;DHT22;13887;57.196;-2.100;2023-02-28T07:07:48;5.71;85.29
22069;DHT22;13887;57.196;-2.100;2023-02-28T07:10:15;5.74;85.24
22069;DHT22;13887;57.196;-2.100;2023-02-28T07:12:46;5.72;85.14
22069;DHT22;13887;57.196;-2.100;2023-02-28T07:15:12;5.69;85.19
22069;DHT22;13887;57.196;-2.100;2023-02-28T07:17:40;5.68;85.27
22069;DHT22;13887;57.196;-2.100;2023-02-28T07:20:08;5.71;85.07
22069;DHT22;13887;57.196;-2.100;2023-02-28T07:22:36;5.70;85.13
22069;DHT22;13887;57.196;-2.100;2023-02-28T07:25:02;5.72;84.90
22069;DHT22;13887;57.196;-2.100;2023-02-28T07:27:30;5.72;84.76
22069;DHT22;13887;57.196;-2.100;2023-02-28T07:29:56;5.72;84.79
22069;DHT22;13887;57.196;-2.100;2023-02-28T07:32:24;5.71;84.78
22069;DHT22;13887;57.196;-2.100;2023-02-28T07:34:51;5.69;84.84
22069;DHT22;13887;57.196;-2.100;2023-02-28T07:37:18;5.70;84.84
22069;DHT22;13887;57.196;-2.100;2023-02-28T07:39:45;5.70;84.81
22069;DHT22;13887;57.196;-2.100;2023-02-28T07:42:12;5.68;84.86
22069;DHT22;13887;57.196;-2.100;2023-02-28T07:44:39;5.68;84.86
22069;DHT22;13887;57.196;-2.100;2023-02-28T07:47:08;5.67;84.91
22069;DHT22;13887;57.196;-2.100;2023-02-28T07:49:36;5.67;85.00
22069;DHT22;13887;57.196;-2.100;2023-02-28T07:52:04;5.67;84.87
22069;DHT22;13887;57.196;-2.100;2023-02-28T07:54:33;5.69;84.87
22069;DHT22;13887;57.196;-2.100;2023-02-28T07:57:00;5.72;84.90
22069;DHT22;13887;57.196;-2.100;2023-02-28T07:59:27;5.69;85.18
22069;DHT22;13887;57.196;-2.100;2023-02-28T08:01:58;5.71;85.22
22069;DHT22;13887;57.196;-2.100;2023-02-28T08:04:26;5.72;85.49
22069;DHT22;13887;57.196;-2.100;2023-02-28T08:06:53;5.74;85.46
22069;DHT22;13887;57.196;-2.100;2023-02-28T08:09:20;5.74;85.52
22069;DHT22;13887;57.196;-2.100;2023-02-28T08:11:47;5.64;87.54
22069;DHT22;13887;57.196;-2.100;2023-02-28T08:14:14;5.72;86.76
22069;DHT22;13887;57.196;-2.100;2023-02-28T08:16:41;5.76;86.38
22069;DHT22;13887;57.196;-2.100;2023-02-28T08:19:09;5.77;86.14
22069;DHT22;13887;57.196;-2.100;2023-02-28T08:21:36;5.77;86.45
22069;DHT22;13887;57.196;-2.100;2023-02-28T08:24:03;5.77;86.51
22069;DHT22;13887;57.196;-2.100;2023-02-28T08:26:30;5.79;86.19
22069;DHT22;13887;57.196;-2.100;2023-02-28T08:28:58;5.77;86.61
22069;DHT22;13887;57.196;-2.100;2023-02-28T08:31:27;5.78;86.42
22069;DHT22;13887;57.196;-2.100;2023-02-28T08:33:55;5.81;86.32
22069;DHT22;13887;57.196;-2.100;2023-02-28T08:36:26;5.82;86.74
22069;DHT22;13887;57.196;-2.100;2023-02-28T08:38:56;5.81;86.83
22069;DHT22;13887;57.196;-2.100;2023-02-28T08:41:23;5.84;86.83
22069;DHT22;13887;57.196;-2.100;2023-02-28T08:43:50;5.84;86.76
22069;DHT22;13887;57.196;-2.100;2023-02-28T08:46:17;5.86;86.78
22069;DHT22;13887;57.196;-2.100;2023-02-28T08:48:45;5.87;86.80
22069;DHT22;13887;57.196;-2.100;2023-02-28T08:51:16;5.86;86.81
22069;DHT22;13887;57.196;-2.100;2023-02-28T08:53:45;5.89;86.90
22069;DHT22;13887;57.196;-2.100;2023-02-28T08:56:13;5.86;87.12
22069;DHT22;13887;57.196;-2.100;2023-02-28T08:58:45;5.92;87.04
22069;DHT22;13887;57.196;-2.100;2023-02-28T09:01:21;5.91;87.31
22069;DHT22;13887;57.196;-2.100;2023-02-28T09:03:51;5.90;87.86
22069;DHT22;13887;57.196;-2.100;2023-02-28T09:06:24;5.91;88.15
22069;DHT22;13887;57.196;-2.100;2023-02-28T09:08:52;5.87;88.44
22069;DHT22;13887;57.196;-2.100;2023-02-28T09:11:22;5.90;88.24
22069;DHT22;13887;57.196;-2.100;2023-02-28T09:13:49;5.90;88.14
22069;DHT22;13887;57.196;-2.100;2023-02-28T09:16:17;5.91;88.09
22069;DHT22;13887;57.196;-2.100;2023-02-28T09:18:45;5.94;88.32
22069;DHT22;13887;57.196;-2.100;2023-02-28T09:21:14;5.92;88.43
22069;DHT22;13887;57.196;-2.100;2023-02-28T09:23:43;5.92;88.89
22069;DHT22;13887;57.196;-2.100;2023-02-28T09:26:24;5.96;88.73
22069;DHT22;13887;57.196;-2.100;2023-02-28T09:29:01;5.96;89.16
22069;DHT22;13887;57.196;-2.100;2023-02-28T09:31:29;5.98;89.24
22069;DHT22;13887;57.196;-2.100;2023-02-28T09:33:57;6.00;89.00
22069;DHT22;13887;57.196;-2.100;2023-02-28T09:36:26;6.00;89.12
22069;DHT22;13887;57.196;-2.100;2023-02-28T09:39:10;5.99;89.18
22069;DHT22;13887;57.196;-2.100;2023-02-28T09:41:44;5.99;89.47
22069;DHT22;13887;57.196;-2.100;2023-02-28T09:44:40;5.99;89.52
22069;DHT22;13887;57.196;-2.100;2023-02-28T09:47:36;6.00;89.86
22069;DHT22;13887;57.196;-2.100;2023-02-28T09:52:54;6.04;89.48
22069;DHT22;13887;57.196;-2.100;2023-02-28T09:55:41;6.06;89.09
22069;DHT22;13887;57.196;-2.100;2023-02-28T09:58:49;6.01;89.48
22069;DHT22;13887;57.196;-2.100;2023-02-28T10:01:30;6.08;89.43
22069;DHT22;13887;57.196;-2.100;2023-02-28T10:04:03;6.10;89.32
22069;DHT22;13887;57.196;-2.100;2023-02-28T10:06:48;6.16;88.89
22069;DHT22;13887;57.196;-2.100;2023-02-28T10:09:29;6.21;88.81
22069;DHT22;13887;57.196;-2.100;2023-02-28T10:12:03;6.23;89.23
22069;DHT22;13887;57.196;-2.100;2023-02-28T10:14:33;6.22;89.31
22069;DHT22;13887;57.196;-2.100;2023-02-28T10:17:39;6.22;89.44
22069;DHT22;13887;57.196;-2.100;2023-02-28T10:20:27;6.21;89.60
22069;DHT22;13887;57.196;-2.100;2023-02-28T10:25:39;6.20;89.11
22069;DHT22;13887;57.196;-2.100;2023-02-28T10:28:16;6.22;88.99
22069;DHT22;13887;57.196;-2.100;2023-02-28T10:30:50;6.23;88.92
22069;DHT22;13887;57.196;-2.100;2023-02-28T10:35:52;6.26;89.45
22069;DHT22;13887;57.196;-2.100;2023-02-28T10:38:29;6.26;89.44
22069;DHT22;13887;57.196;-2.100;2023-02-28T10:41:10;6.26;89.33
22069;DHT22;13887;57.196;-2.100;2023-02-28T10:43:39;6.30;89.05
22069;DHT22;13887;57.196;-2.100;2023-02-28T10:46:14;6.30;88.89
22069;DHT22;13887;57.196;-2.100;2023-02-28T10:49:05;6.33;89.14
22069;DHT22;13887;57.196;-2.100;2023-02-28T10:51:38;6.33;89.13
22069;DHT22;13887;57.196;-2.100;2023-02-28T10:54:18;6.31;89.44
22069;DHT22;13887;57.196;-2.100;2023-02-28T10:59:42;6.34;89.64
22069;DHT22;13887;57.196;-2.100;2023-02-28T11:02:31;6.37;89.68
22069;DHT22;13887;57.196;-2.100;2023-02-28T11:05:00;6.38;89.62
22069;DHT22;13887;57.196;-2.100;2023-02-28T11:07:31;6.37;89.36
22069;DHT22;13887;57.196;-2.100;2023-02-28T11:10:20;6.38;89.51
22069;DHT22;13887;57.196;-2.100;2023-02-28T11:12:49;6.38;89.47
22069;DHT22;13887;57.196;-2.100;2023-02-28T11:15:24;6.38;89.53
22069;DHT22;13887;57.196;-2.100;2023-02-28T11:18:02;6.39;89.49
22069;DHT22;13887;57.196;-2.100;2023-02-28T11:20:33;6.41;89.21
22069;DHT22;13887;57.196;-2.100;2023-02-28T11:23:02;6.42;89.31
22069;DHT22;13887;57.196;-2.100;2023-02-28T11:25:37;6.45;89.11
22069;DHT22;13887;57.196;-2.100;2023-02-28T11:28:24;6.46;89.01
22069;DHT22;13887;57.196;-2.100;2023-02-28T11:33:50;6.48;89.13
22069;DHT22;13887;57.196;-2.100;2023-02-28T11:36:22;6.48;89.16
22069;DHT22;13887;57.196;-2.100;2023-02-28T11:39:01;6.48;89.52
22069;DHT22;13887;57.196;-2.100;2023-02-28T11:41:46;6.50;89.43
22069;DHT22;13887;57.196;-2.100;2023-02-28T11:44:47;6.54;89.41
22069;DHT22;13887;57.196;-2.100;2023-02-28T11:52:52;6.54;89.54
22069;DHT22;13887;57.196;-2.100;2023-02-28T12:06:25;6.57;89.58
22069;DHT22;13887;57.196;-2.100;2023-02-28T12:09:29;6.56;89.51
22069;DHT22;13887;57.196;-2.100;2023-02-28T12:25:54;6.57;90.42
22069;DHT22;13887;57.196;-2.100;2023-02-28T12:28:27;6.58;90.43
22069;DHT22;13887;57.196;-2.100;2023-02-28T12:31:18;6.57;90.28
22069;DHT22;13887;57.196;-2.100;2023-02-28T12:33:51;6.56;90.41
22069;DHT22;13887;57.196;-2.100;2023-02-28T12:36:20;6.56;90.41
22069;DHT22;13887;57.196;-2.100;2023-02-28T12:44:14;6.57;90.28
22069;DHT22;13887;57.196;-2.100;2023-02-28T12:46:48;6.57;90.24
22069;DHT22;13887;57.196;-2.100;2023-02-28T12:49:41;6.56;90.10
22069;DHT22;13887;57.196;-2.100;2023-02-28T12:52:17;6.57;90.08
22069;DHT22;13887;57.196;-2.100;2023-02-28T12:55:00;6.59;90.05
22069;DHT22;13887;57.196;-2.100;2023-02-28T12:57:36;6.57;90.14
22069;DHT22;13887;57.196;-2.100;2023-02-28T13:00:18;6.58;90.24
22069;DHT22;13887;57.196;-2.100;2023-02-28T13:02:59;6.60;90.14
22069;DHT22;13887;57.196;-2.100;2023-02-28T13:11:46;6.65;90.08
22069;DHT22;13887;57.196;-2.100;2023-02-28T13:14:21;6.65;89.83
22069;DHT22;13887;57.196;-2.100;2023-02-28T13:17:11;6.63;89.89
22069;DHT22;13887;57.196;-2.100;2023-02-28T13:22:48;6.65;89.62
22069;DHT22;13887;57.196;-2.100;2023-02-28T13:27:55;6.66;89.37
22069;DHT22;13887;57.196;-2.100;2023-02-28T13:33:31;6.64;89.43
22069;DHT22;13887;57.196;-2.100;2023-02-28T13:38:46;6.66;89.36
22069;DHT22;13887;57.196;-2.100;2023-02-28T13:44:21;6.66;89.34
22069;DHT22;13887;57.196;-2.100;2023-02-28T14:06:27;6.63;89.59
22069;DHT22;13887;57.196;-2.100;2023-02-28T14:09:19;6.60;89.60
22069;DHT22;13887;57.196;-2.100;2023-02-28T14:11:51;6.60;89.54
22069;DHT22;13887;57.196;-2.100;2023-02-28T14:17:03;6.61;89.33
22069;DHT22;13887;57.196;-2.100;2023-02-28T14:19:37;6.67;89.12
22069;DHT22;13887;57.196;-2.100;2023-02-28T14:22:54;6.66;88.91
22069;DHT22;13887;57.196;-2.100;2023-02-28T14:25:11;6.67;88.67
22069;DHT22;13887;57.196;-2.100;2023-02-28T14:39:06;6.72;87.14
22069;DHT22;13887;57.196;-2.100;2023-02-28T14:41:39;6.73;86.75
22069;DHT22;13887;57.196;-2.100;2023-02-28T14:46:50;6.71;86.72
22069;DHT22;13887;57.196;-2.100;2023-02-28T14:54:52;6.75;86.27
22069;DHT22;13887;57.196;-2.100;2023-02-28T14:57:39;6.74;86.45
22069;DHT22;13887;57.196;-2.100;2023-02-28T15:00:26;6.78;86.30
22069;DHT22;13887;57.196;-2.100;2023-02-28T15:02:56;6.79;86.21
22069;DHT22;13887;57.196;-2.100;2023-02-28T15:05:34;6.76;85.97
22069;DHT22;13887;57.196;-2.100;2023-02-28T15:08:14;6.76;86.01
22069;DHT22;13887;57.196;-2.100;2023-02-28T15:10:44;6.79;86.04
22069;DHT22;13887;57.196;-2.100;2023-02-28T15:13:14;6.74;85.71
22069;DHT22;13887;57.196;-2.100;2023-02-28T15:16:03;6.76;85.61
22069;DHT22;13887;57.196;-2.100;2023-02-28T15:18:45;6.76;85.61
22069;DHT22;13887;57.196;-2.100;2023-02-28T15:21:20;6.78;85.61
22069;DHT22;13887;57.196;-2.100;2023-02-28T15:26:39;6.74;86.38
22069;DHT22;13887;57.196;-2.100;2023-02-28T15:29:28;6.72;87.36
22069;DHT22;13887;57.196;-2.100;2023-02-28T15:32:04;6.70;87.77
22069;DHT22;13887;57.196;-2.100;2023-02-28T15:34:40;6.69;88.51
22069;DHT22;13887;57.196;-2.100;2023-02-28T15:37:38;6.67;89.63
22069;DHT22;13887;57.196;-2.100;2023-02-28T15:42:38;6.67;90.36
22069;DHT22;13887;57.196;-2.100;2023-02-28T15:45:25;6.66;90.37
22069;DHT22;13887;57.196;-2.100;2023-02-28T15:47:53;6.65;90.50
22069;DHT22;13887;57.196;-2.100;2023-02-28T15:50:28;6.64;90.76
22069;DHT22;13887;57.196;-2.100;2023-02-28T15:52:57;6.67;90.94
22069;DHT22;13887;57.196;-2.100;2023-02-28T15:55:27;6.66;90.62
22069;DHT22;13887;57.196;-2.100;2023-02-28T15:57:57;6.66;90.62
22069;DHT22;13887;57.196;-2.100;2023-02-28T16:00:30;6.68;90.66
22069;DHT22;13887;57.196;-2.100;2023-02-28T16:02:59;6.68;90.68
22069;DHT22;13887;57.196;-2.100;2023-02-28T16:05:29;6.70;90.57
22069;DHT22;13887;57.196;-2.100;2023-02-28T16:08:14;6.71;90.60
22069;DHT22;13887;57.196;-2.100;2023-02-28T16:10:42;6.70;90.86
22069;DHT22;13887;57.196;-2.100;2023-02-28T16:13:11;6.71;90.92
22069;DHT22;13887;57.196;-2.100;2023-02-28T16:15:43;6.68;90.79
22069;DHT22;13887;57.196;-2.100;2023-02-28T16:18:11;6.66;90.45
22069;DHT22;13887;57.196;-2.100;2023-02-28T16:20:39;6.65;90.19
22069;DHT22;13887;57.196;-2.100;2023-02-28T16:23:06;6.67;90.00
22069;DHT22;13887;57.196;-2.100;2023-02-28T16:25:37;6.67;89.77
22069;DHT22;13887;57.196;-2.100;2023-02-28T16:28:12;6.68;89.65
22069;DHT22;13887;57.196;-2.100;2023-02-28T16:30:42;6.65;89.23
22069;DHT22;13887;57.196;-2.100;2023-02-28T16:33:09;6.67;88.73
22069;DHT22;13887;57.196;-2.100;2023-02-28T16:35:37;6.66;88.71
22069;DHT22;13887;57.196;-2.100;2023-02-28T16:38:04;6.66;88.81
22069;DHT22;13887;57.196;-2.100;2023-02-28T16:40:34;6.60;88.83
22069;DHT22;13887;57.196;-2.100;2023-02-28T16:43:07;6.61;88.71
22069;DHT22;13887;57.196;-2.100;2023-02-28T16:45:35;6.65;88.64
22069;DHT22;13887;57.196;-2.100;2023-02-28T16:48:03;6.67;88.46
22069;DHT22;13887;57.196;-2.100;2023-02-28T16:50:30;6.66;88.45
22069;DHT22;13887;57.196;-2.100;2023-02-28T16:53:02;6.66;88.32
22069;DHT22;13887;57.196;-2.100;2023-02-28T16:55:29;6.64;88.44
22069;DHT22;13887;57.196;-2.100;2023-02-28T16:58:00;6.63;88.65
22069;DHT22;13887;57.196;-2.100;2023-02-28T17:00:30;6.60;89.08
22069;DHT22;13887;57.196;-2.100;2023-02-28T17:03:01;6.56;89.72
22069;DHT22;13887;57.196;-2.100;2023-02-28T17:05:37;6.56;89.80
22069;DHT22;13887;57.196;-2.100;2023-02-28T17:08:08;6.55;89.79
22069;DHT22;13887;57.196;-2.100;2023-02-28T17:10:35;6.52;89.83
22069;DHT22;13887;57.196;-2.100;2023-02-28T17:13:03;6.53;89.62
22069;DHT22;13887;57.196;-2.100;2023-02-28T17:15:40;6.51;89.51
22069;DHT22;13887;57.196;-2.100;2023-02-28T17:18:12;6.50;89.35
22069;DHT22;13887;57.196;-2.100;2023-02-28T17:20:40;6.49;89.44
22069;DHT22;13887;57.196;-2.100;2023-02-28T17:23:09;6.49;89.47
22069;DHT22;13887;57.196;-2.100;2023-02-28T17:25:36;6.52;89.21
22069;DHT22;13887;57.196;-2.100;2023-02-28T17:28:04;6.54;88.99
22069;DHT22;13887;57.196;-2.100;2023-02-28T17:30:34;6.53;88.83
22069;DHT22;13887;57.196;-2.100;2023-02-28T17:33:01;6.54;88.73
22069;DHT22;13887;57.196;-2.100;2023-02-28T17:35:30;6.55;88.61
22069;DHT22;13887;57.196;-2.100;2023-02-28T17:37:57;6.55;88.62
22069;DHT22;13887;57.196;-2.100;2023-02-28T17:40:25;6.57;88.20
22069;DHT22;13887;57.196;-2.100;2023-02-28T17:42:52;6.55;89.08
22069;DHT22;13887;57.196;-2.100;2023-02-28T17:45:19;6.58;88.50
22069;DHT22;13887;57.196;-2.100;2023-02-28T17:47:48;6.58;88.29
22069;DHT22;13887;57.196;-2.100;2023-02-28T17:50:21;6.57;87.95
22069;DHT22;13887;57.196;-2.100;2023-02-28T17:52:48;6.54;88.26
22069;DHT22;13887;57.196;-2.100;2023-02-28T17:55:21;6.54;88.37
22069;DHT22;13887;57.196;-2.100;2023-02-28T17:57:49;6.59;87.99
22069;DHT22;13887;57.196;-2.100;2023-02-28T18:00:19;6.59;87.73
22069;DHT22;13887;57.196;-2.100;2023-02-28T18:02:49;6.60;87.64
22069;DHT22;13887;57.196;-2.100;2023-02-28T18:05:18;6.63;87.64
22069;DHT22;13887;57.196;-2.100;2023-02-28T18:07:49;6.61;87.51
22069;DHT22;13887;57.196;-2.100;2023-02-28T18:10:19;6.56;87.87
22069;DHT22;13887;57.196;-2.100;2023-02-28T18:12:50;6.58;87.67
22069;DHT22;13887;57.196;-2.100;2023-02-28T18:15:21;6.58;87.61
22069;DHT22;13887;57.196;-2.100;2023-02-28T18:17:50;6.60;87.61
22069;DHT22;13887;57.196;-2.100;2023-02-28T18:20:20;6.61;87.36
22069;DHT22;13887;57.196;-2.100;2023-02-28T18:22:49;6.60;87.83
22069;DHT22;13887;57.196;-2.100;2023-02-28T18:25:17;6.61;88.12
22069;DHT22;13887;57.196;-2.100;2023-02-28T18:27:46;6.74;87.55
22069;DHT22;13887;57.196;-2.100;2023-02-28T18:30:31;6.85;87.26
22069;DHT22;13887;57.196;-2.100;2023-02-28T18:33:11;6.91;87.38
22069;DHT22;13887;57.196;-2.100;2023-02-28T18:35:39;6.96;87.24